sensor_id;sensor_type;location;lat;lon;timestamp;temperature;humidity
20680;DHT22;10499;47.494;7.608;2023-03-01T00:01:33;1.90;94.70
20680;DHT22;10499;47.494;7.608;2023-03-01T00:04:00;1.90;94.90
20680;DHT22;10499;47.494;7.608;2023-03-01T00:06:27;1.90;94.80
20680;DHT22;10499;47.494;7.608;2023-03-01T00:08:53;2.00;94.40
20680;DHT22;10499;47.494;7.608;2023-03-01T00:11:27;2.00;94.20
20680;DHT22;10499;47.494;7.608;2023-03-01T00:13:56;1.90;94.50
20680;DHT22;10499;47.494;7.608;2023-03-01T00:16:26;1.90;94.50
20680;DHT22;10499;47.494;7.608;2023-03-01T00:18:53;1.90;94.40
20680;DHT22;10499;47.494;7.608;2023-03-01T00:21:20;1.90;94.70
20680;DHT22;10499;47.494;7.608;2023-03-01T00:23:50;1.80;94.60
20680;DHT22;10499;47.494;7.608;2023-03-01T00:26:17;1.80;94.60
20680;DHT22;10499;47.494;7.608;2023-03-01T00:28:44;1.80;94.90
20680;DHT22;10499;47.494;7.608;2023-03-01T00:31:12;1.80;95.30
20680;DHT22;10499;47.494;7.608;2023-03-01T00:33:39;1.80;95.20
20680;DHT22;10499;47.494;7.608;2023-03-01T00:36:05;1.80;95.10
20680;DHT22;10499;47.494;7.608;2023-03-01T00:38:38;1.80;95.50
20680;DHT22;10499;47.494;7.608;2023-03-01T00:41:12;1.80;95.00
20680;DHT22;10499;47.494;7.608;2023-03-01T00:43:39;1.80;95.50
20680;DHT22;10499;47.494;7.608;2023-03-01T00:46:08;1.70;95.50
20680;DHT22;10499;47.494;7.608;2023-03-01T00:48:34;1.80;95.30
20680;DHT22;10499;47.494;7.608;2023-03-01T00:51:20;1.80;95.40
20680;DHT22;10499;47.494;7.608;2023-03-01T00:53:47;1.80;95.30
20680;DHT22;10499;47.494;7.608;2023-03-01T00:56:15;1.70;95.50
20680;DHT22;10499;47.494;7.608;2023-03-01T00:58:41;1.70;95.50
20680;DHT22;10499;47.494;7.608;2023-03-01T01:01:27;1.60;96.30
20680;DHT22;10499;47.494;7.608;2023-03-01T01:03:58;1.70;95.70
20680;DHT22;10499;47.494;7.608;2023-03-01T01:06:27;1.70;95.30
20680;DHT22;10499;47.494;7.608;2023-03-01T01:08:54;1.70;95.50
20680;DHT22;10499;47.494;7.608;2023-03-01T01:11:21;1.70;95.70
20680;DHT22;10499;47.494;7.608;2023-03-01T01:13:47;1.70;95.70
20680;DHT22;10499;47.494;7.608;2023-03-01T01:16:14;1.70;95.40
20680;DHT22;10499;47.494;7.608;2023-03-01T01:18:40;1.60;95.80
20680;DHT22;10499;47.494;7.608;2023-03-01T01:21:09;1.50;95.80
20680;DHT22;10499;47.494;7.608;2023-03-01T01:23:36;1.50;96.00
20680;DHT22;10499;47.494;7.608;2023-03-01T01:26:10;1.50;96.10
20680;DHT22;10499;47.494;7.608;2023-03-01T01:28:36;1.60;96.00
20680;DHT22;10499;47.494;7.608;2023-03-01T01:31:02;1.70;95.80
20680;DHT22;10499;47.494;7.608;2023-03-01T01:33:28;1.70;95.50
20680;DHT22;10499;47.494;7.608;2023-03-01T01:35:54;1.70;95.90
20680;DHT22;10499;47.494;7.608;2023-03-01T01:38:20;1.60;96.20
20680;DHT22;10499;47.494;7.608;2023-03-01T01:40:47;1.60;95.90
20680;DHT22;10499;47.494;7.608;2023-03-01T01:45:46;1.70;96.50
20680;DHT22;10499;47.494;7.608;2023-03-01T01:48:16;1.60;96.70
20680;DHT22;10499;47.494;7.608;2023-03-01T01:50:43;1.50;97.20
20680;DHT22;10499;47.494;7.608;2023-03-01T01:53:13;1.50;97.30
20680;DHT22;10499;47.494;7.608;2023-03-01T01:55:44;1.40;97.10
20680;DHT22;10499;47.494;7.608;2023-03-01T01:58:12;1.50;96.90
20680;DHT22;10499;47.494;7.608;2023-03-01T02:00:39;1.40;97.10
20680;DHT22;10499;47.494;7.608;2023-03-01T02:03:14;1.40;97.10
20680;DHT22;10499;47.494;7.608;2023-03-01T02:08:28;1.40;97.10
20680;DHT22;10499;47.494;7.608;2023-03-01T02:10:58;1.30;98.20
20680;DHT22;10499;47.494;7.608;2023-03-01T02:13:25;1.30;97.90
20680;DHT22;10499;47.494;7.608;2023-03-01T02:15:51;1.40;97.80
20680;DHT22;10499;47.494;7.608;2023-03-01T02:18:19;1.30;98.00
20680;DHT22;10499;47.494;7.608;2023-03-01T02:23:27;1.40;97.00
20680;DHT22;10499;47.494;7.608;2023-03-01T02:26:15;1.40;97.20
20680;DHT22;10499;47.494;7.608;2023-03-01T02:28:44;1.40;97.30
20680;DHT22;10499;47.494;7.608;2023-03-01T02:31:15;1.40;97.50
20680;DHT22;10499;47.494;7.608;2023-03-01T02:34:00;1.30;97.80
20680;DHT22;10499;47.494;7.608;2023-03-01T02:36:34;1.40;97.40
20680;DHT22;10499;47.494;7.608;2023-03-01T02:39:02;1.40;97.00
20680;DHT22;10499;47.494;7.608;2023-03-01T02:41:32;1.50;96.90
20680;DHT22;10499;47.494;7.608;2023-03-01T02:44:01;1.50;96.70
20680;DHT22;10499;47.494;7.608;2023-03-01T02:46:27;1.50;96.30
20680;DHT22;10499;47.494;7.608;2023-03-01T02:48:54;1.40;97.40
20680;DHT22;10499;47.494;7.608;2023-03-01T02:54:28;1.40;97.40
20680;DHT22;10499;47.494;7.608;2023-03-01T02:56:56;1.50;96.70
20680;DHT22;10499;47.494;7.608;2023-03-01T02:59:26;1.50;96.60
20680;DHT22;10499;47.494;7.608;2023-03-01T03:01:54;1.50;96.20
20680;DHT22;10499;47.494;7.608;2023-03-01T03:04:20;1.50;96.50
20680;DHT22;10499;47.494;7.608;2023-03-01T03:06:48;1.50;96.90
20680;DHT22;10499;47.494;7.608;2023-03-01T03:09:15;1.50;96.70
20680;DHT22;10499;47.494;7.608;2023-03-01T03:11:41;1.40;96.50
20680;DHT22;10499;47.494;7.608;2023-03-01T03:14:13;1.40;97.10
20680;DHT22;10499;47.494;7.608;2023-03-01T03:16:44;1.30;97.70
20680;DHT22;10499;47.494;7.608;2023-03-01T03:19:11;1.30;97.40
20680;DHT22;10499;47.494;7.608;2023-03-01T03:21:37;1.40;96.90
20680;DHT22;10499;47.494;7.608;2023-03-01T03:24:03;1.30;97.30
20680;DHT22;10499;47.494;7.608;2023-03-01T03:26:29;1.30;97.10
20680;DHT22;10499;47.494;7.608;2023-03-01T03:28:55;1.20;97.90
20680;DHT22;10499;47.494;7.608;2023-03-01T03:31:21;1.20;97.60
20680;DHT22;10499;47.494;7.608;2023-03-01T03:33:47;1.10;97.50
20680;DHT22;10499;47.494;7.608;2023-03-01T03:36:21;1.10;97.80
20680;DHT22;10499;47.494;7.608;2023-03-01T03:38:47;1.10;97.80
20680;DHT22;10499;47.494;7.608;2023-03-01T03:41:14;1.00;98.60
20680;DHT22;10499;47.494;7.608;2023-03-01T03:43:42;1.00;99.10
20680;DHT22;10499;47.494;7.608;2023-03-01T03:46:10;0.90;99.30
20680;DHT22;10499;47.494;7.608;2023-03-01T03:48:46;0.80;99.30
20680;DHT22;10499;47.494;7.608;2023-03-01T03:51:13;0.80;99.90
20680;DHT22;10499;47.494;7.608;2023-03-01T03:53:39;0.80;99.90
20680;DHT22;10499;47.494;7.608;2023-03-01T03:56:05;0.80;99.90
20680;DHT22;10499;47.494;7.608;2023-03-01T03:58:31;0.80;99.90
20680;DHT22;10499;47.494;7.608;2023-03-01T04:00:57;0.80;99.90
20680;DHT22;10499;47.494;7.608;2023-03-01T04:03:25;0.60;99.90
20680;DHT22;10499;47.494;7.608;2023-03-01T04:05:51;0.60;99.90
20680;DHT22;10499;47.494;7.608;2023-03-01T04:08:21;0.70;99.90
20680;DHT22;10499;47.494;7.608;2023-03-01T04:10:50;0.70;99.90
20680;DHT22;10499;47.494;7.608;2023-03-01T04:13:21;0.60;99.90
20680;DHT22;10499;47.494;7.608;2023-03-01T04:15:52;0.50;99.90
20680;DHT22;10499;47.494;7.608;2023-03-01T04:18:20;0.60;99.90
20680;DHT22;10499;47.494;7.608;2023-03-01T04:20:46;0.60;99.90
20680;DHT22;10499;47.494;7.608;2023-03-01T04:23:18;0.70;99.90
20680;DHT22;10499;47.494;7.608;2023-03-01T04:28:28;0.60;99.90
20680;DHT22;10499;47.494;7.608;2023-03-01T04:30:56;0.60;99.90
20680;DHT22;10499;47.494;7.608;2023-03-01T04:33:23;0.60;99.90
20680;DHT22;10499;47.494;7.608;2023-03-01T04:35:49;0.60;99.90
20680;DHT22;10499;47.494;7.608;2023-03-01T04:38:15;0.60;99.90
20680;DHT22;10499;47.494;7.608;2023-03-01T04:40:41;0.50;99.90
20680;DHT22;10499;47.494;7.608;2023-03-01T04:43:09;0.50;99.90
20680;DHT22;10499;47.494;7.608;2023-03-01T04:45:35;0.50;99.90
20680;DHT22;10499;47.494;7.608;2023-03-01T04:48:01;0.60;99.90
20680;DHT22;10499;47.494;7.608;2023-03-01T04:50:27;0.60;99.90
20680;DHT22;10499;47.494;7.608;2023-03-01T04:52:53;0.50;99.90
20680;DHT22;10499;47.494;7.608;2023-03-01T04:55:19;0.60;99.90
20680;DHT22;10499;47.494;7.608;2023-03-01T04:57:44;0.50;99.90
20680;DHT22;10499;47.494;7.608;2023-03-01T05:00:12;0.50;99.90
20680;DHT22;10499;47.494;7.608;2023-03-01T05:02:55;0.60;99.90
20680;DHT22;10499;47.494;7.608;2023-03-01T05:05:27;0.50;99.90
20680;DHT22;10499;47.494;7.608;2023-03-01T05:07:55;0.50;99.90
20680;DHT22;10499;47.494;7.608;2023-03-01T05:10:21;0.40;99.90
20680;DHT22;10499;47.494;7.608;2023-03-01T05:12:46;0.50;99.90
20680;DHT22;10499;47.494;7.608;2023-03-01T05:15:12;0.50;99.90
20680;DHT22;10499;47.494;7.608;2023-03-01T05:17:38;0.50;99.90
20680;DHT22;10499;47.494;7.608;2023-03-01T05:20:04;0.50;99.90
20680;DHT22;10499;47.494;7.608;2023-03-01T05:22:34;0.40;99.90
20680;DHT22;10499;47.494;7.608;2023-03-01T05:25:00;0.50;99.90
20680;DHT22;10499;47.494;7.608;2023-03-01T05:27:25;0.50;99.90
20680;DHT22;10499;47.494;7.608;2023-03-01T05:29:51;0.50;99.90
20680;DHT22;10499;47.494;7.608;2023-03-01T05:32:17;0.50;99.90
20680;DHT22;10499;47.494;7.608;2023-03-01T05:34:42;0.40;99.90
20680;DHT22;10499;47.494;7.608;2023-03-01T05:37:09;0.40;99.90
20680;DHT22;10499;47.494;7.608;2023-03-01T05:39:35;0.20;99.90
20680;DHT22;10499;47.494;7.608;2023-03-01T05:42:01;0.20;99.90
20680;DHT22;10499;47.494;7.608;2023-03-01T05:44:28;0.30;99.90
20680;DHT22;10499;47.494;7.608;2023-03-01T05:46:54;0.40;99.90
20680;DHT22;10499;47.494;7.608;2023-03-01T05:49:21;0.40;99.90
20680;DHT22;10499;47.494;7.608;2023-03-01T05:51:51;0.30;99.90
20680;DHT22;10499;47.494;7.608;2023-03-01T05:54:17;0.30;99.90
20680;DHT22;10499;47.494;7.608;2023-03-01T05:56:44;0.30;99.90
20680;DHT22;10499;47.494;7.608;2023-03-01T05:59:10;0.30;99.90
20680;DHT22;10499;47.494;7.608;2023-03-01T06:01:37;0.30;99.90
20680;DHT22;10499;47.494;7.608;2023-03-01T06:04:03;0.40;99.90
20680;DHT22;10499;47.494;7.608;2023-03-01T06:06:29;0.40;99.90
20680;DHT22;10499;47.494;7.608;2023-03-01T06:08:55;0.30;99.90
20680;DHT22;10499;47.494;7.608;2023-03-01T06:11:21;0.20;99.90
20680;DHT22;10499;47.494;7.608;2023-03-01T06:13:47;0.20;99.90
20680;DHT22;10499;47.494;7.608;2023-03-01T06:16:14;0.20;99.90
20680;DHT22;10499;47.494;7.608;2023-03-01T06:18:40;0.20;99.90
20680;DHT22;10499;47.494;7.608;2023-03-01T06:21:07;0.30;99.90
20680;DHT22;10499;47.494;7.608;2023-03-01T06:23:34;0.30;99.90
20680;DHT22;10499;47.494;7.608;2023-03-01T06:26:00;0.30;99.90
20680;DHT22;10499;47.494;7.608;2023-03-01T06:28:26;0.40;99.90
20680;DHT22;10499;47.494;7.608;2023-03-01T06:30:52;0.40;99.90
20680;DHT22;10499;47.494;7.608;2023-03-01T06:33:18;0.40;99.90
20680;DHT22;10499;47.494;7.608;2023-03-01T06:35:46;0.50;99.90
20680;DHT22;10499;47.494;7.608;2023-03-01T06:38:12;0.50;99.90
20680;DHT22;10499;47.494;7.608;2023-03-01T06:40:40;0.50;99.90
20680;DHT22;10499;47.494;7.608;2023-03-01T06:43:06;0.30;99.90
20680;DHT22;10499;47.494;7.608;2023-03-01T06:45:33;0.20;99.90
20680;DHT22;10499;47.494;7.608;2023-03-01T06:48:05;0.30;99.90
20680;DHT22;10499;47.494;7.608;2023-03-01T06:50:32;0.30;99.90
20680;DHT22;10499;47.494;7.608;2023-03-01T06:52:58;0.30;99.90
20680;DHT22;10499;47.494;7.608;2023-03-01T06:55:24;0.30;99.90
20680;DHT22;10499;47.494;7.608;2023-03-01T06:57:57;0.20;99.90
20680;DHT22;10499;47.494;7.608;2023-03-01T07:00:23;0.30;99.90
20680;DHT22;10499;47.494;7.608;2023-03-01T07:02:49;0.40;99.90
20680;DHT22;10499;47.494;7.608;2023-03-01T07:05:15;0.30;99.90
20680;DHT22;10499;47.494;7.608;2023-03-01T07:07:40;0.30;99.90
20680;DHT22;10499;47.494;7.608;2023-03-01T07:10:07;0.30;99.90
20680;DHT22;10499;47.494;7.608;2023-03-01T07:12:33;0.20;99.90
20680;DHT22;10499;47.494;7.608;2023-03-01T07:14:58;0.20;99.90
20680;DHT22;10499;47.494;7.608;2023-03-01T07:17:24;0.10;99.90
20680;DHT22;10499;47.494;7.608;2023-03-01T07:19:50;0.20;99.90
20680;DHT22;10499;47.494;7.608;2023-03-01T07:22:16;0.30;99.90
20680;DHT22;10499;47.494;7.608;2023-03-01T07:24:42;0.30;99.90
20680;DHT22;10499;47.494;7.608;2023-03-01T07:27:08;0.40;99.90
20680;DHT22;10499;47.494;7.608;2023-03-01T07:29:34;0.30;99.90
20680;DHT22;10499;47.494;7.608;2023-03-01T07:32:02;0.40;99.90
20680;DHT22;10499;47.494;7.608;2023-03-01T07:34:28;0.40;99.90
20680;DHT22;10499;47.494;7.608;2023-03-01T07:36:53;0.50;99.90
20680;DHT22;10499;47.494;7.608;2023-03-01T07:39:19;0.50;99.90
20680;DHT22;10499;47.494;7.608;2023-03-01T07:41:45;0.50;99.90
20680;DHT22;10499;47.494;7.608;2023-03-01T07:44:10;0.50;99.90
20680;DHT22;10499;47.494;7.608;2023-03-01T07:46:36;0.40;99.90
20680;DHT22;10499;47.494;7.608;2023-03-01T07:49:02;0.50;99.90
20680;DHT22;10499;47.494;7.608;2023-03-01T07:51:27;0.50;99.90
20680;DHT22;10499;47.494;7.608;2023-03-01T07:53:53;0.60;99.90
20680;DHT22;10499;47.494;7.608;2023-03-01T07:56:19;0.70;99.90
20680;DHT22;10499;47.494;7.608;2023-03-01T07:58:45;0.70;99.90
20680;DHT22;10499;47.494;7.608;2023-03-01T08:01:15;0.70;99.70
20680;DHT22;10499;47.494;7.608;2023-03-01T08:03:41;0.60;99.80
20680;DHT22;10499;47.494;7.608;2023-03-01T08:06:09;0.70;99.30
20680;DHT22;10499;47.494;7.608;2023-03-01T08:08:35;0.70;99.20
20680;DHT22;10499;47.494;7.608;2023-03-01T08:11:02;0.70;99.90
20680;DHT22;10499;47.494;7.608;2023-03-01T08:13:29;0.80;99.90
20680;DHT22;10499;47.494;7.608;2023-03-01T08:15:59;0.80;99.00
20680;DHT22;10499;47.494;7.608;2023-03-01T08:18:25;0.70;99.80
20680;DHT22;10499;47.494;7.608;2023-03-01T08:20:51;0.70;99.90
20680;DHT22;10499;47.494;7.608;2023-03-01T08:23:16;0.80;99.80
20680;DHT22;10499;47.494;7.608;2023-03-01T08:25:42;0.70;99.90
20680;DHT22;10499;47.494;7.608;2023-03-01T08:28:08;0.60;99.90
20680;DHT22;10499;47.494;7.608;2023-03-01T08:30:34;0.50;99.90
20680;DHT22;10499;47.494;7.608;2023-03-01T08:32:59;0.50;99.90
20680;DHT22;10499;47.494;7.608;2023-03-01T08:35:25;0.60;99.90
20680;DHT22;10499;47.494;7.608;2023-03-01T08:37:51;0.70;99.90
20680;DHT22;10499;47.494;7.608;2023-03-01T08:40:16;0.80;99.90
20680;DHT22;10499;47.494;7.608;2023-03-01T08:42:42;0.90;99.10
20680;DHT22;10499;47.494;7.608;2023-03-01T08:45:09;0.90;98.50
20680;DHT22;10499;47.494;7.608;2023-03-01T08:47:35;1.00;97.80
20680;DHT22;10499;47.494;7.608;2023-03-01T08:50:02;1.10;97.20
20680;DHT22;10499;47.494;7.608;2023-03-01T08:52:28;1.10;98.10
20680;DHT22;10499;47.494;7.608;2023-03-01T08:54:55;1.10;97.30
20680;DHT22;10499;47.494;7.608;2023-03-01T08:57:21;1.00;98.00
20680;DHT22;10499;47.494;7.608;2023-03-01T08:59:47;1.00;98.10
20680;DHT22;10499;47.494;7.608;2023-03-01T09:02:15;1.10;98.30
20680;DHT22;10499;47.494;7.608;2023-03-01T09:04:41;1.10;98.30
20680;DHT22;10499;47.494;7.608;2023-03-01T09:07:08;1.20;97.30
20680;DHT22;10499;47.494;7.608;2023-03-01T09:09:34;1.30;96.90
20680;DHT22;10499;47.494;7.608;2023-03-01T09:12:00;1.40;96.30
20680;DHT22;10499;47.494;7.608;2023-03-01T09:14:26;1.30;96.80
20680;DHT22;10499;47.494;7.608;2023-03-01T09:16:52;1.20;97.20
20680;DHT22;10499;47.494;7.608;2023-03-01T09:19:18;1.20;97.50
20680;DHT22;10499;47.494;7.608;2023-03-01T09:21:43;1.20;97.40
20680;DHT22;10499;47.494;7.608;2023-03-01T09:24:21;1.20;97.40
20680;DHT22;10499;47.494;7.608;2023-03-01T09:26:47;1.30;96.60
20680;DHT22;10499;47.494;7.608;2023-03-01T09:29:14;1.30;96.80
20680;DHT22;10499;47.494;7.608;2023-03-01T09:31:40;1.40;96.40
20680;DHT22;10499;47.494;7.608;2023-03-01T09:34:06;1.40;96.90
20680;DHT22;10499;47.494;7.608;2023-03-01T09:36:32;1.50;96.40
20680;DHT22;10499;47.494;7.608;2023-03-01T09:38:58;1.50;96.40
20680;DHT22;10499;47.494;7.608;2023-03-01T09:41:45;1.50;96.50
20680;DHT22;10499;47.494;7.608;2023-03-01T09:44:42;1.60;96.40
20680;DHT22;10499;47.494;7.608;2023-03-01T09:47:18;1.50;96.50
20680;DHT22;10499;47.494;7.608;2023-03-01T09:49:58;1.40;96.80
20680;DHT22;10499;47.494;7.608;2023-03-01T09:53:00;1.50;96.60
20680;DHT22;10499;47.494;7.608;2023-03-01T09:56:00;1.50;96.60
20680;DHT22;10499;47.494;7.608;2023-03-01T10:06:44;1.60;96.10
20680;DHT22;10499;47.494;7.608;2023-03-01T10:09:16;1.60;96.30
20680;DHT22;10499;47.494;7.608;2023-03-01T10:11:50;1.50;96.80
20680;DHT22;10499;47.494;7.608;2023-03-01T10:14:43;1.50;96.90
20680;DHT22;10499;47.494;7.608;2023-03-01T10:17:26;1.60;96.30
20680;DHT22;10499;47.494;7.608;2023-03-01T10:19:55;1.60;96.00
20680;DHT22;10499;47.494;7.608;2023-03-01T10:22:29;1.60;96.20
20680;DHT22;10499;47.494;7.608;2023-03-01T10:25:02;1.70;96.00
20680;DHT22;10499;47.494;7.608;2023-03-01T10:27:53;1.60;96.20
20680;DHT22;10499;47.494;7.608;2023-03-01T10:30:38;1.70;96.10
20680;DHT22;10499;47.494;7.608;2023-03-01T10:33:27;1.80;96.30
20680;DHT22;10499;47.494;7.608;2023-03-01T10:35:53;1.80;96.00
20680;DHT22;10499;47.494;7.608;2023-03-01T10:38:20;1.80;95.60
20680;DHT22;10499;47.494;7.608;2023-03-01T10:41:00;1.90;95.60
20680;DHT22;10499;47.494;7.608;2023-03-01T10:46:31;2.00;94.90
20680;DHT22;10499;47.494;7.608;2023-03-01T10:49:16;2.00;94.60
20680;DHT22;10499;47.494;7.608;2023-03-01T10:51:43;2.10;94.10
20680;DHT22;10499;47.494;7.608;2023-03-01T10:54:35;2.10;94.20
20680;DHT22;10499;47.494;7.608;2023-03-01T10:57:04;2.00;94.40
20680;DHT22;10499;47.494;7.608;2023-03-01T10:59:35;2.00;95.20
20680;DHT22;10499;47.494;7.608;2023-03-01T11:02:22;2.00;95.40
20680;DHT22;10499;47.494;7.608;2023-03-01T11:04:59;2.10;94.90
20680;DHT22;10499;47.494;7.608;2023-03-01T11:07:25;2.10;95.10
20680;DHT22;10499;47.494;7.608;2023-03-01T11:09:51;2.10;95.00
20680;DHT22;10499;47.494;7.608;2023-03-01T11:12:17;2.10;95.10
20680;DHT22;10499;47.494;7.608;2023-03-01T11:14:53;2.10;95.10
20680;DHT22;10499;47.494;7.608;2023-03-01T11:17:30;2.10;95.40
20680;DHT22;10499;47.494;7.608;2023-03-01T11:20:15;2.30;94.80
20680;DHT22;10499;47.494;7.608;2023-03-01T11:25:15;2.20;94.90
20680;DHT22;10499;47.494;7.608;2023-03-01T11:27:44;2.20;94.90
20680;DHT22;10499;47.494;7.608;2023-03-01T11:30:31;2.40;94.60
20680;DHT22;10499;47.494;7.608;2023-03-01T11:36:00;2.50;94.00
20680;DHT22;10499;47.494;7.608;2023-03-01T11:38:27;2.70;93.60
20680;DHT22;10499;47.494;7.608;2023-03-01T11:46:24;2.50;94.00
20680;DHT22;10499;47.494;7.608;2023-03-01T12:05:47;2.70;94.00
20680;DHT22;10499;47.494;7.608;2023-03-01T12:08:35;2.70;93.90
20680;DHT22;10499;47.494;7.608;2023-03-01T12:14:30;2.50;94.70
20680;DHT22;10499;47.494;7.608;2023-03-01T12:26:10;3.00;94.00
20680;DHT22;10499;47.494;7.608;2023-03-01T12:29:00;2.90;93.90
20680;DHT22;10499;47.494;7.608;2023-03-01T12:31:48;3.00;94.00
20680;DHT22;10499;47.494;7.608;2023-03-01T12:40:30;3.20;93.30
20680;DHT22;10499;47.494;7.608;2023-03-01T12:51:33;3.70;91.60
20680;DHT22;10499;47.494;7.608;2023-03-01T12:54:05;3.70;91.60
20680;DHT22;10499;47.494;7.608;2023-03-01T12:56:34;3.50;91.90
20680;DHT22;10499;47.494;7.608;2023-03-01T13:01:34;3.50;92.20
20680;DHT22;10499;47.494;7.608;2023-03-01T13:23:13;3.60;92.20
20680;DHT22;10499;47.494;7.608;2023-03-01T13:26:16;3.60;92.00
20680;DHT22;10499;47.494;7.608;2023-03-01T13:33:50;3.80;91.80
20680;DHT22;10499;47.494;7.608;2023-03-01T13:46:56;3.70;92.10
20680;DHT22;10499;47.494;7.608;2023-03-01T13:49:27;3.80;91.80
20680;DHT22;10499;47.494;7.608;2023-03-01T13:51:54;3.80;91.80
20680;DHT22;10499;47.494;7.608;2023-03-01T13:54:29;3.80;91.90
20680;DHT22;10499;47.494;7.608;2023-03-01T13:56:58;3.80;91.80
20680;DHT22;10499;47.494;7.608;2023-03-01T13:59:24;3.90;92.20
20680;DHT22;10499;47.494;7.608;2023-03-01T14:01:59;3.90;92.10
20680;DHT22;10499;47.494;7.608;2023-03-01T14:04:28;3.90;92.10
20680;DHT22;10499;47.494;7.608;2023-03-01T14:07:16;3.90;91.90
20680;DHT22;10499;47.494;7.608;2023-03-01T14:09:45;3.90;91.90
20680;DHT22;10499;47.494;7.608;2023-03-01T14:15:02;3.90;92.20
20680;DHT22;10499;47.494;7.608;2023-03-01T14:20:47;4.00;92.30
20680;DHT22;10499;47.494;7.608;2023-03-01T14:23:19;4.10;92.00
20680;DHT22;10499;47.494;7.608;2023-03-01T14:25:54;4.20;91.60
20680;DHT22;10499;47.494;7.608;2023-03-01T14:28:32;4.20;91.30
20680;DHT22;10499;47.494;7.608;2023-03-01T14:31:03;4.30;91.00
20680;DHT22;10499;47.494;7.608;2023-03-01T14:33:34;4.30;90.90
20680;DHT22;10499;47.494;7.608;2023-03-01T14:38:37;4.30;90.80
20680;DHT22;10499;47.494;7.608;2023-03-01T14:41:12;4.30;90.60
20680;DHT22;10499;47.494;7.608;2023-03-01T14:43:46;4.50;90.20
20680;DHT22;10499;47.494;7.608;2023-03-01T14:46:37;4.50;90.00
20680;DHT22;10499;47.494;7.608;2023-03-01T14:49:20;4.50;89.90
20680;DHT22;10499;47.494;7.608;2023-03-01T14:52:02;4.50;90.00
20680;DHT22;10499;47.494;7.608;2023-03-01T14:54:44;4.40;90.20
20680;DHT22;10499;47.494;7.608;2023-03-01T14:57:25;4.40;90.10
20680;DHT22;10499;47.494;7.608;2023-03-01T14:59:59;4.40;90.10
20680;DHT22;10499;47.494;7.608;2023-03-01T15:02:28;4.30;90.20
20680;DHT22;10499;47.494;7.608;2023-03-01T15:04:57;4.30;90.50
20680;DHT22;10499;47.494;7.608;2023-03-01T15:07:30;4.30;90.30
20680;DHT22;10499;47.494;7.608;2023-03-01T15:09:58;4.30;89.80
20680;DHT22;10499;47.494;7.608;2023-03-01T15:14:52;4.30;90.40
20680;DHT22;10499;47.494;7.608;2023-03-01T15:17:35;4.30;90.30
20680;DHT22;10499;47.494;7.608;2023-03-01T15:20:13;4.40;90.20
20680;DHT22;10499;47.494;7.608;2023-03-01T15:22:44;4.50;89.50
20680;DHT22;10499;47.494;7.608;2023-03-01T15:25:18;4.60;89.30
20680;DHT22;10499;47.494;7.608;2023-03-01T15:27:48;4.60;88.80
20680;DHT22;10499;47.494;7.608;2023-03-01T15:30:25;4.70;88.10
20680;DHT22;10499;47.494;7.608;2023-03-01T15:36:01;4.80;87.30
20680;DHT22;10499;47.494;7.608;2023-03-01T15:41:27;4.80;87.20
20680;DHT22;10499;47.494;7.608;2023-03-01T15:43:56;4.80;87.20
20680;DHT22;10499;47.494;7.608;2023-03-01T15:48:53;4.80;86.50
20680;DHT22;10499;47.494;7.608;2023-03-01T15:51:34;4.90;86.40
20680;DHT22;10499;47.494;7.608;2023-03-01T15:54:04;4.80;86.40
20680;DHT22;10499;47.494;7.608;2023-03-01T15:56:30;4.80;86.20
20680;DHT22;10499;47.494;7.608;2023-03-01T15:59:00;4.70;86.40
20680;DHT22;10499;47.494;7.608;2023-03-01T16:01:27;4.80;86.30
20680;DHT22;10499;47.494;7.608;2023-03-01T16:03:52;4.80;86.40
20680;DHT22;10499;47.494;7.608;2023-03-01T16:06:19;4.70;87.10
20680;DHT22;10499;47.494;7.608;2023-03-01T16:08:45;4.60;86.40
20680;DHT22;10499;47.494;7.608;2023-03-01T16:11:17;4.50;86.70
20680;DHT22;10499;47.494;7.608;2023-03-01T16:13:44;4.60;86.90
20680;DHT22;10499;47.494;7.608;2023-03-01T16:16:11;4.60;87.40
20680;DHT22;10499;47.494;7.608;2023-03-01T16:18:39;4.60;87.10
20680;DHT22;10499;47.494;7.608;2023-03-01T16:21:05;4.60;87.10
20680;DHT22;10499;47.494;7.608;2023-03-01T16:23:31;4.50;87.10
20680;DHT22;10499;47.494;7.608;2023-03-01T16:25:59;4.50;87.30
20680;DHT22;10499;47.494;7.608;2023-03-01T16:28:26;4.50;87.40
20680;DHT22;10499;47.494;7.608;2023-03-01T16:30:51;4.40;87.80
20680;DHT22;10499;47.494;7.608;2023-03-01T16:33:17;4.20;88.40
20680;DHT22;10499;47.494;7.608;2023-03-01T16:35:43;4.20;88.90
20680;DHT22;10499;47.494;7.608;2023-03-01T16:38:10;4.10;89.40
20680;DHT22;10499;47.494;7.608;2023-03-01T16:40:35;4.00;89.60
20680;DHT22;10499;47.494;7.608;2023-03-01T16:43:01;3.90;90.00
20680;DHT22;10499;47.494;7.608;2023-03-01T16:45:32;3.90;90.30
20680;DHT22;10499;47.494;7.608;2023-03-01T16:47:58;3.80;90.70
20680;DHT22;10499;47.494;7.608;2023-03-01T16:50:24;3.70;91.20
20680;DHT22;10499;47.494;7.608;2023-03-01T16:52:51;3.70;91.50
20680;DHT22;10499;47.494;7.608;2023-03-01T16:55:16;3.60;92.00
20680;DHT22;10499;47.494;7.608;2023-03-01T16:57:42;3.50;92.50
20680;DHT22;10499;47.494;7.608;2023-03-01T17:00:09;3.40;94.00
20680;DHT22;10499;47.494;7.608;2023-03-01T17:02:36;3.30;92.80
20680;DHT22;10499;47.494;7.608;2023-03-01T17:05:02;3.30;92.10
20680;DHT22;10499;47.494;7.608;2023-03-01T17:07:29;3.30;92.10
20680;DHT22;10499;47.494;7.608;2023-03-01T17:09:59;3.30;91.90
20680;DHT22;10499;47.494;7.608;2023-03-01T17:12:25;3.30;91.30
20680;DHT22;10499;47.494;7.608;2023-03-01T17:14:50;3.20;91.50
20680;DHT22;10499;47.494;7.608;2023-03-01T17:17:16;3.20;91.50
20680;DHT22;10499;47.494;7.608;2023-03-01T17:19:42;3.00;92.40
20680;DHT22;10499;47.494;7.608;2023-03-01T17:22:09;2.90;95.10
20680;DHT22;10499;47.494;7.608;2023-03-01T17:24:37;2.80;96.30
20680;DHT22;10499;47.494;7.608;2023-03-01T17:27:03;2.70;98.00
20680;DHT22;10499;47.494;7.608;2023-03-01T17:29:29;2.60;97.70
20680;DHT22;10499;47.494;7.608;2023-03-01T17:31:55;2.60;99.90
20680;DHT22;10499;47.494;7.608;2023-03-01T17:34:22;2.50;99.90
20680;DHT22;10499;47.494;7.608;2023-03-01T17:36:48;2.50;98.40
20680;DHT22;10499;47.494;7.608;2023-03-01T17:39:15;2.40;99.90
20680;DHT22;10499;47.494;7.608;2023-03-01T17:41:42;2.40;99.90
20680;DHT22;10499;47.494;7.608;2023-03-01T17:44:08;2.30;99.90
20680;DHT22;10499;47.494;7.608;2023-03-01T17:46:34;2.20;99.90
20680;DHT22;10499;47.494;7.608;2023-03-01T17:49:00;2.10;99.90
20680;DHT22;10499;47.494;7.608;2023-03-01T17:51:25;2.10;99.90
20680;DHT22;10499;47.494;7.608;2023-03-01T17:53:51;2.00;99.90
20680;DHT22;10499;47.494;7.608;2023-03-01T17:56:16;2.00;99.90
20680;DHT22;10499;47.494;7.608;2023-03-01T17:58:42;2.00;99.90
20680;DHT22;10499;47.494;7.608;2023-03-01T18:01:10;2.00;99.90
20680;DHT22;10499;47.494;7.608;2023-03-01T18:03:37;2.00;99.90
20680;DHT22;10499;47.494;7.608;2023-03-01T18:06:12;2.00;99.90
20680;DHT22;10499;47.494;7.608;2023-03-01T18:08:38;2.00;99.90
20680;DHT22;10499;47.494;7.608;2023-03-01T18:11:04;2.10;99.90
20680;DHT22;10499;47.494;7.608;2023-03-01T18:13:30;2.10;99.90
20680;DHT22;10499;47.494;7.608;2023-03-01T18:15:56;2.10;99.90